sensor_id;sensor_type;location;lat;lon;timestamp;P1;durP1;ratioP1;P2;durP2;ratioP2
18776;SDS011;9517;51.174;4.160;2022-08-06T00:01:44;10.97;;;2.10;;
18776;SDS011;9517;51.174;4.160;2022-08-06T00:04:11;10.73;;;1.90;;
18776;SDS011;9517;51.174;4.160;2022-08-06T00:06:38;6.93;;;1.87;;
18776;SDS011;9517;51.174;4.160;2022-08-06T00:09:05;7.77;;;2.07;;
18776;SDS011;9517;51.174;4.160;2022-08-06T00:11:34;7.23;;;2.53;;
18776;SDS011;9517;51.174;4.160;2022-08-06T00:14:01;8.13;;;2.00;;
18776;SDS011;9517;51.174;4.160;2022-08-06T00:16:28;7.90;;;2.20;;
18776;SDS011;9517;51.174;4.160;2022-08-06T00:18:55;8.13;;;2.00;;
18776;SDS011;9517;51.174;4.160;2022-08-06T00:21:22;7.60;;;2.17;;
18776;SDS011;9517;51.174;4.160;2022-08-06T00:23:49;8.53;;;2.60;;
18776;SDS011;9517;51.174;4.160;2022-08-06T00:26:16;8.43;;;2.20;;
18776;SDS011;9517;51.174;4.160;2022-08-06T00:28:45;12.10;;;2.00;;
18776;SDS011;9517;51.174;4.160;2022-08-06T00:31:12;8.73;;;2.17;;
18776;SDS011;9517;51.174;4.160;2022-08-06T00:33:39;9.83;;;2.70;;
18776;SDS011;9517;51.174;4.160;2022-08-06T00:36:07;6.97;;;1.97;;
18776;SDS011;9517;51.174;4.160;2022-08-06T00:38:35;8.17;;;2.23;;
18776;SDS011;9517;51.174;4.160;2022-08-06T00:41:02;6.93;;;1.93;;
18776;SDS011;9517;51.174;4.160;2022-08-06T00:43:29;8.17;;;1.87;;
18776;SDS011;9517;51.174;4.160;2022-08-06T00:45:58;8.83;;;2.20;;
18776;SDS011;9517;51.174;4.160;2022-08-06T00:48:25;8.37;;;2.50;;
18776;SDS011;9517;51.174;4.160;2022-08-06T00:50:52;6.27;;;1.90;;
18776;SDS011;9517;51.174;4.160;2022-08-06T00:53:19;7.10;;;2.00;;
18776;SDS011;9517;51.174;4.160;2022-08-06T00:55:46;8.17;;;1.60;;
18776;SDS011;9517;51.174;4.160;2022-08-06T00:58:14;10.93;;;1.90;;
18776;SDS011;9517;51.174;4.160;2022-08-06T01:00:41;7.50;;;2.10;;
18776;SDS011;9517;51.174;4.160;2022-08-06T01:03:09;6.17;;;1.90;;
18776;SDS011;9517;51.174;4.160;2022-08-06T01:05:36;7.03;;;2.00;;
18776;SDS011;9517;51.174;4.160;2022-08-06T01:08:04;12.70;;;2.43;;
18776;SDS011;9517;51.174;4.160;2022-08-06T01:10:31;7.87;;;1.97;;
18776;SDS011;9517;51.174;4.160;2022-08-06T01:12:58;7.20;;;1.93;;
18776;SDS011;9517;51.174;4.160;2022-08-06T01:15:25;9.73;;;1.93;;
18776;SDS011;9517;51.174;4.160;2022-08-06T01:17:53;8.40;;;2.03;;
18776;SDS011;9517;51.174;4.160;2022-08-06T01:20:30;9.63;;;2.00;;
18776;SDS011;9517;51.174;4.160;2022-08-06T01:23:11;8.53;;;2.03;;
18776;SDS011;9517;51.174;4.160;2022-08-06T01:26:21;8.27;;;2.10;;
18776;SDS011;9517;51.174;4.160;2022-08-06T01:28:58;6.07;;;1.73;;
18776;SDS011;9517;51.174;4.160;2022-08-06T01:31:29;7.77;;;2.27;;
18776;SDS011;9517;51.174;4.160;2022-08-06T01:34:03;11.10;;;2.10;;
18776;SDS011;9517;51.174;4.160;2022-08-06T01:36:36;10.30;;;2.10;;
18776;SDS011;9517;51.174;4.160;2022-08-06T01:39:08;13.23;;;2.27;;
18776;SDS011;9517;51.174;4.160;2022-08-06T01:41:40;8.90;;;2.27;;
18776;SDS011;9517;51.174;4.160;2022-08-06T01:44:12;6.17;;;1.67;;
18776;SDS011;9517;51.174;4.160;2022-08-06T01:46:42;7.57;;;1.63;;
18776;SDS011;9517;51.174;4.160;2022-08-06T01:49:11;11.03;;;2.00;;
18776;SDS011;9517;51.174;4.160;2022-08-06T01:51:42;8.67;;;2.10;;
18776;SDS011;9517;51.174;4.160;2022-08-06T01:54:11;9.87;;;2.23;;
18776;SDS011;9517;51.174;4.160;2022-08-06T01:56:41;7.73;;;1.83;;
18776;SDS011;9517;51.174;4.160;2022-08-06T01:59:12;7.00;;;2.00;;
18776;SDS011;9517;51.174;4.160;2022-08-06T02:01:43;8.57;;;2.43;;
18776;SDS011;9517;51.174;4.160;2022-08-06T02:04:12;17.17;;;2.07;;
18776;SDS011;9517;51.174;4.160;2022-08-06T02:06:42;8.73;;;1.93;;
18776;SDS011;9517;51.174;4.160;2022-08-06T02:09:12;9.07;;;2.13;;
18776;SDS011;9517;51.174;4.160;2022-08-06T02:11:43;9.67;;;2.10;;
18776;SDS011;9517;51.174;4.160;2022-08-06T02:14:15;7.83;;;1.87;;
18776;SDS011;9517;51.174;4.160;2022-08-06T02:16:45;8.70;;;1.90;;
18776;SDS011;9517;51.174;4.160;2022-08-06T02:19:13;11.10;;;2.43;;
18776;SDS011;9517;51.174;4.160;2022-08-06T02:21:44;6.47;;;1.83;;
18776;SDS011;9517;51.174;4.160;2022-08-06T02:24:12;8.33;;;2.20;;
18776;SDS011;9517;51.174;4.160;2022-08-06T02:26:40;7.10;;;1.90;;
18776;SDS011;9517;51.174;4.160;2022-08-06T02:29:10;7.00;;;1.80;;
18776;SDS011;9517;51.174;4.160;2022-08-06T02:31:44;11.40;;;2.13;;
18776;SDS011;9517;51.174;4.160;2022-08-06T02:34:11;10.97;;;2.13;;
18776;SDS011;9517;51.174;4.160;2022-08-06T02:36:40;9.97;;;2.10;;
18776;SDS011;9517;51.174;4.160;2022-08-06T02:39:13;11.20;;;2.40;;
18776;SDS011;9517;51.174;4.160;2022-08-06T02:41:47;9.63;;;2.80;;
18776;SDS011;9517;51.174;4.160;2022-08-06T02:44:19;6.67;;;2.37;;
18776;SDS011;9517;51.174;4.160;2022-08-06T02:46:52;8.17;;;1.90;;
18776;SDS011;9517;51.174;4.160;2022-08-06T02:49:25;11.63;;;2.40;;
18776;SDS011;9517;51.174;4.160;2022-08-06T02:51:54;7.13;;;2.03;;
18776;SDS011;9517;51.174;4.160;2022-08-06T02:54:27;11.33;;;2.20;;
18776;SDS011;9517;51.174;4.160;2022-08-06T02:57:08;9.83;;;2.00;;
18776;SDS011;9517;51.174;4.160;2022-08-06T02:59:44;8.67;;;2.10;;
18776;SDS011;9517;51.174;4.160;2022-08-06T03:02:14;10.33;;;2.10;;
18776;SDS011;9517;51.174;4.160;2022-08-06T03:04:47;6.57;;;1.90;;
18776;SDS011;9517;51.174;4.160;2022-08-06T03:07:15;6.63;;;1.90;;
18776;SDS011;9517;51.174;4.160;2022-08-06T03:09:45;12.57;;;3.23;;
18776;SDS011;9517;51.174;4.160;2022-08-06T03:12:15;6.90;;;1.90;;
18776;SDS011;9517;51.174;4.160;2022-08-06T03:14:43;7.27;;;2.17;;
18776;SDS011;9517;51.174;4.160;2022-08-06T03:17:12;12.10;;;2.53;;
18776;SDS011;9517;51.174;4.160;2022-08-06T03:19:43;5.97;;;1.83;;
18776;SDS011;9517;51.174;4.160;2022-08-06T03:22:11;8.27;;;2.10;;
18776;SDS011;9517;51.174;4.160;2022-08-06T03:24:40;9.20;;;2.10;;
18776;SDS011;9517;51.174;4.160;2022-08-06T03:27:09;9.17;;;2.30;;
18776;SDS011;9517;51.174;4.160;2022-08-06T03:29:37;7.70;;;2.50;;
18776;SDS011;9517;51.174;4.160;2022-08-06T03:32:06;8.73;;;2.20;;
18776;SDS011;9517;51.174;4.160;2022-08-06T03:34:35;9.80;;;2.10;;
18776;SDS011;9517;51.174;4.160;2022-08-06T03:37:05;9.50;;;2.30;;
18776;SDS011;9517;51.174;4.160;2022-08-06T03:39:34;10.63;;;2.67;;
18776;SDS011;9517;51.174;4.160;2022-08-06T03:42:05;9.73;;;2.53;;
18776;SDS011;9517;51.174;4.160;2022-08-06T03:44:32;7.87;;;2.37;;
18776;SDS011;9517;51.174;4.160;2022-08-06T03:47:01;8.03;;;2.23;;
18776;SDS011;9517;51.174;4.160;2022-08-06T03:49:33;8.33;;;2.73;;
18776;SDS011;9517;51.174;4.160;2022-08-06T03:52:04;6.23;;;2.20;;
18776;SDS011;9517;51.174;4.160;2022-08-06T03:54:34;17.13;;;2.97;;
18776;SDS011;9517;51.174;4.160;2022-08-06T03:57:04;8.60;;;2.70;;
18776;SDS011;9517;51.174;4.160;2022-08-06T03:59:34;8.50;;;3.00;;
18776;SDS011;9517;51.174;4.160;2022-08-06T04:02:04;11.37;;;2.60;;
18776;SDS011;9517;51.174;4.160;2022-08-06T04:04:33;10.57;;;2.47;;
18776;SDS011;9517;51.174;4.160;2022-08-06T04:07:03;7.20;;;2.57;;
18776;SDS011;9517;51.174;4.160;2022-08-06T04:09:31;7.70;;;2.30;;
18776;SDS011;9517;51.174;4.160;2022-08-06T04:11:59;10.00;;;3.03;;
18776;SDS011;9517;51.174;4.160;2022-08-06T04:14:27;8.13;;;2.70;;
18776;SDS011;9517;51.174;4.160;2022-08-06T04:16:55;12.07;;;2.90;;
18776;SDS011;9517;51.174;4.160;2022-08-06T04:19:23;10.93;;;2.60;;
18776;SDS011;9517;51.174;4.160;2022-08-06T04:21:51;10.07;;;3.00;;
18776;SDS011;9517;51.174;4.160;2022-08-06T04:24:19;12.07;;;2.77;;
18776;SDS011;9517;51.174;4.160;2022-08-06T04:26:47;8.87;;;3.20;;
18776;SDS011;9517;51.174;4.160;2022-08-06T04:29:20;8.70;;;2.77;;
18776;SDS011;9517;51.174;4.160;2022-08-06T04:31:49;9.57;;;2.63;;
18776;SDS011;9517;51.174;4.160;2022-08-06T04:34:19;8.03;;;2.50;;
18776;SDS011;9517;51.174;4.160;2022-08-06T04:36:49;9.73;;;3.00;;
18776;SDS011;9517;51.174;4.160;2022-08-06T04:39:17;8.70;;;2.53;;
18776;SDS011;9517;51.174;4.160;2022-08-06T04:41:47;9.83;;;2.93;;
18776;SDS011;9517;51.174;4.160;2022-08-06T04:44:14;14.73;;;3.30;;
18776;SDS011;9517;51.174;4.160;2022-08-06T04:46:42;8.87;;;3.07;;
18776;SDS011;9517;51.174;4.160;2022-08-06T04:49:13;10.47;;;3.00;;
18776;SDS011;9517;51.174;4.160;2022-08-06T04:51:40;10.47;;;2.90;;
18776;SDS011;9517;51.174;4.160;2022-08-06T04:54:10;10.83;;;3.30;;
18776;SDS011;9517;51.174;4.160;2022-08-06T04:56:39;11.13;;;3.30;;
18776;SDS011;9517;51.174;4.160;2022-08-06T04:59:06;11.27;;;3.50;;
18776;SDS011;9517;51.174;4.160;2022-08-06T05:01:35;13.87;;;3.30;;
18776;SDS011;9517;51.174;4.160;2022-08-06T05:04:03;12.13;;;3.77;;
18776;SDS011;9517;51.174;4.160;2022-08-06T05:06:33;9.97;;;3.40;;
18776;SDS011;9517;51.174;4.160;2022-08-06T05:09:08;11.30;;;3.30;;
18776;SDS011;9517;51.174;4.160;2022-08-06T05:11:40;8.20;;;3.10;;
18776;SDS011;9517;51.174;4.160;2022-08-06T05:14:12;10.57;;;3.07;;
18776;SDS011;9517;51.174;4.160;2022-08-06T05:16:43;12.63;;;3.30;;
18776;SDS011;9517;51.174;4.160;2022-08-06T05:19:15;9.23;;;3.00;;
18776;SDS011;9517;51.174;4.160;2022-08-06T05:21:45;13.00;;;4.40;;
18776;SDS011;9517;51.174;4.160;2022-08-06T05:24:13;11.57;;;3.50;;
18776;SDS011;9517;51.174;4.160;2022-08-06T05:26:42;9.47;;;3.27;;
18776;SDS011;9517;51.174;4.160;2022-08-06T05:29:10;13.30;;;3.17;;
18776;SDS011;9517;51.174;4.160;2022-08-06T05:31:37;10.10;;;3.30;;
18776;SDS011;9517;51.174;4.160;2022-08-06T05:34:08;12.33;;;3.30;;
18776;SDS011;9517;51.174;4.160;2022-08-06T05:36:36;16.63;;;3.50;;
18776;SDS011;9517;51.174;4.160;2022-08-06T05:39:04;10.50;;;3.07;;
18776;SDS011;9517;51.174;4.160;2022-08-06T05:41:31;9.60;;;3.00;;
18776;SDS011;9517;51.174;4.160;2022-08-06T05:44:01;14.20;;;3.40;;
18776;SDS011;9517;51.174;4.160;2022-08-06T05:46:34;11.53;;;3.70;;
18776;SDS011;9517;51.174;4.160;2022-08-06T05:49:07;9.13;;;2.90;;
18776;SDS011;9517;51.174;4.160;2022-08-06T05:51:38;12.73;;;3.73;;
18776;SDS011;9517;51.174;4.160;2022-08-06T05:54:10;12.70;;;3.40;;
18776;SDS011;9517;51.174;4.160;2022-08-06T05:56:43;14.10;;;3.00;;
18776;SDS011;9517;51.174;4.160;2022-08-06T05:59:16;14.17;;;3.40;;
18776;SDS011;9517;51.174;4.160;2022-08-06T06:01:46;9.10;;;2.83;;
18776;SDS011;9517;51.174;4.160;2022-08-06T06:04:14;13.57;;;3.20;;
18776;SDS011;9517;51.174;4.160;2022-08-06T06:06:44;18.90;;;3.23;;
18776;SDS011;9517;51.174;4.160;2022-08-06T06:09:12;12.33;;;3.27;;
18776;SDS011;9517;51.174;4.160;2022-08-06T06:11:40;11.80;;;2.60;;
18776;SDS011;9517;51.174;4.160;2022-08-06T06:14:21;16.23;;;2.93;;
18776;SDS011;9517;51.174;4.160;2022-08-06T06:17:02;9.03;;;2.60;;
18776;SDS011;9517;51.174;4.160;2022-08-06T06:19:40;10.20;;;2.90;;
18776;SDS011;9517;51.174;4.160;2022-08-06T06:22:23;12.30;;;3.20;;
18776;SDS011;9517;51.174;4.160;2022-08-06T06:24:54;11.53;;;2.60;;
18776;SDS011;9517;51.174;4.160;2022-08-06T06:27:28;7.97;;;2.27;;
18776;SDS011;9517;51.174;4.160;2022-08-06T06:30:02;12.13;;;2.70;;
18776;SDS011;9517;51.174;4.160;2022-08-06T06:32:35;13.30;;;3.20;;
18776;SDS011;9517;51.174;4.160;2022-08-06T06:35:14;9.53;;;2.37;;
18776;SDS011;9517;51.174;4.160;2022-08-06T06:37:49;16.33;;;3.10;;
18776;SDS011;9517;51.174;4.160;2022-08-06T06:40:28;8.50;;;1.90;;
18776;SDS011;9517;51.174;4.160;2022-08-06T06:43:10;16.47;;;2.30;;
18776;SDS011;9517;51.174;4.160;2022-08-06T06:45:45;9.23;;;1.93;;
18776;SDS011;9517;51.174;4.160;2022-08-06T06:48:18;16.10;;;1.97;;
18776;SDS011;9517;51.174;4.160;2022-08-06T06:50:50;9.47;;;1.73;;
18776;SDS011;9517;51.174;4.160;2022-08-06T06:53:19;8.00;;;1.50;;
18776;SDS011;9517;51.174;4.160;2022-08-06T06:55:50;13.00;;;1.93;;
18776;SDS011;9517;51.174;4.160;2022-08-06T06:58:20;9.27;;;1.50;;
18776;SDS011;9517;51.174;4.160;2022-08-06T07:00:53;8.07;;;1.17;;
18776;SDS011;9517;51.174;4.160;2022-08-06T07:03:22;10.97;;;1.30;;
18776;SDS011;9517;51.174;4.160;2022-08-06T07:05:52;7.37;;;1.10;;
18776;SDS011;9517;51.174;4.160;2022-08-06T07:08:23;6.10;;;1.10;;
18776;SDS011;9517;51.174;4.160;2022-08-06T07:10:52;6.00;;;1.00;;
18776;SDS011;9517;51.174;4.160;2022-08-06T07:13:21;7.77;;;1.10;;
18776;SDS011;9517;51.174;4.160;2022-08-06T07:15:49;10.80;;;1.40;;
18776;SDS011;9517;51.174;4.160;2022-08-06T07:18:19;6.50;;;1.33;;
18776;SDS011;9517;51.174;4.160;2022-08-06T07:20:48;6.53;;;1.30;;
18776;SDS011;9517;51.174;4.160;2022-08-06T07:23:15;9.87;;;1.23;;
18776;SDS011;9517;51.174;4.160;2022-08-06T07:25:45;11.50;;;1.20;;
18776;SDS011;9517;51.174;4.160;2022-08-06T07:28:14;9.30;;;1.70;;
18776;SDS011;9517;51.174;4.160;2022-08-06T07:30:41;7.33;;;1.10;;
18776;SDS011;9517;51.174;4.160;2022-08-06T07:33:10;8.27;;;1.27;;
18776;SDS011;9517;51.174;4.160;2022-08-06T07:35:40;10.10;;;1.67;;
18776;SDS011;9517;51.174;4.160;2022-08-06T07:38:10;13.10;;;1.93;;
18776;SDS011;9517;51.174;4.160;2022-08-06T07:40:42;7.73;;;1.50;;
18776;SDS011;9517;51.174;4.160;2022-08-06T07:43:15;8.97;;;1.97;;
18776;SDS011;9517;51.174;4.160;2022-08-06T07:45:44;8.47;;;1.53;;
18776;SDS011;9517;51.174;4.160;2022-08-06T07:48:12;6.97;;;1.73;;
18776;SDS011;9517;51.174;4.160;2022-08-06T07:50:46;8.90;;;1.50;;
18776;SDS011;9517;51.174;4.160;2022-08-06T07:53:15;6.23;;;1.23;;
18776;SDS011;9517;51.174;4.160;2022-08-06T07:55:45;7.23;;;1.57;;
18776;SDS011;9517;51.174;4.160;2022-08-06T07:58:12;8.77;;;1.53;;
18776;SDS011;9517;51.174;4.160;2022-08-06T08:00:40;8.53;;;1.60;;
18776;SDS011;9517;51.174;4.160;2022-08-06T08:03:08;17.17;;;1.37;;
18776;SDS011;9517;51.174;4.160;2022-08-06T08:05:55;8.40;;;1.63;;
18776;SDS011;9517;51.174;4.160;2022-08-06T08:08:41;4.47;;;1.00;;
18776;SDS011;9517;51.174;4.160;2022-08-06T08:11:08;6.53;;;1.17;;
18776;SDS011;9517;51.174;4.160;2022-08-06T08:13:36;6.97;;;1.00;;
18776;SDS011;9517;51.174;4.160;2022-08-06T08:16:04;7.17;;;1.20;;
18776;SDS011;9517;51.174;4.160;2022-08-06T08:18:33;6.67;;;1.27;;
18776;SDS011;9517;51.174;4.160;2022-08-06T08:21:01;4.07;;;1.20;;
18776;SDS011;9517;51.174;4.160;2022-08-06T08:23:29;5.50;;;1.10;;
18776;SDS011;9517;51.174;4.160;2022-08-06T08:25:58;4.90;;;1.10;;
18776;SDS011;9517;51.174;4.160;2022-08-06T08:28:28;5.40;;;1.03;;
18776;SDS011;9517;51.174;4.160;2022-08-06T08:30:55;6.03;;;1.20;;
18776;SDS011;9517;51.174;4.160;2022-08-06T08:33:26;6.03;;;0.93;;
18776;SDS011;9517;51.174;4.160;2022-08-06T08:35:55;2.20;;;0.40;;
18776;SDS011;9517;51.174;4.160;2022-08-06T08:38:24;3.90;;;0.60;;
18776;SDS011;9517;51.174;4.160;2022-08-06T08:40:51;3.03;;;0.67;;
18776;SDS011;9517;51.174;4.160;2022-08-06T08:43:21;5.53;;;0.70;;
18776;SDS011;9517;51.174;4.160;2022-08-06T08:45:51;5.80;;;0.97;;
18776;SDS011;9517;51.174;4.160;2022-08-06T08:48:23;6.20;;;0.97;;
18776;SDS011;9517;51.174;4.160;2022-08-06T08:50:54;3.03;;;0.70;;
18776;SDS011;9517;51.174;4.160;2022-08-06T08:53:28;5.03;;;0.80;;
18776;SDS011;9517;51.174;4.160;2022-08-06T08:56:00;4.10;;;0.83;;
18776;SDS011;9517;51.174;4.160;2022-08-06T08:58:28;5.03;;;0.80;;
18776;SDS011;9517;51.174;4.160;2022-08-06T09:01:01;3.33;;;0.70;;
18776;SDS011;9517;51.174;4.160;2022-08-06T09:03:33;8.07;;;0.90;;
18776;SDS011;9517;51.174;4.160;2022-08-06T09:06:02;8.80;;;0.83;;
18776;SDS011;9517;51.174;4.160;2022-08-06T09:08:31;5.43;;;0.80;;
18776;SDS011;9517;51.174;4.160;2022-08-06T09:10:58;5.17;;;1.10;;
18776;SDS011;9517;51.174;4.160;2022-08-06T09:13:26;4.43;;;1.10;;
18776;SDS011;9517;51.174;4.160;2022-08-06T09:15:54;5.83;;;1.13;;
18776;SDS011;9517;51.174;4.160;2022-08-06T09:18:23;5.43;;;1.20;;
18776;SDS011;9517;51.174;4.160;2022-08-06T09:20:51;3.57;;;0.90;;
18776;SDS011;9517;51.174;4.160;2022-08-06T09:23:19;4.40;;;0.87;;
18776;SDS011;9517;51.174;4.160;2022-08-06T09:25:48;4.40;;;0.87;;
18776;SDS011;9517;51.174;4.160;2022-08-06T09:28:26;4.73;;;0.80;;
18776;SDS011;9517;51.174;4.160;2022-08-06T09:30:59;5.97;;;1.60;;
18776;SDS011;9517;51.174;4.160;2022-08-06T09:33:27;8.60;;;0.80;;
18776;SDS011;9517;51.174;4.160;2022-08-06T09:35:57;3.93;;;0.73;;
18776;SDS011;9517;51.174;4.160;2022-08-06T09:38:25;6.60;;;0.87;;
18776;SDS011;9517;51.174;4.160;2022-08-06T09:41:04;2.67;;;0.70;;
18776;SDS011;9517;51.174;4.160;2022-08-06T09:43:33;6.27;;;0.90;;
18776;SDS011;9517;51.174;4.160;2022-08-06T09:46:02;4.90;;;0.80;;
18776;SDS011;9517;51.174;4.160;2022-08-06T09:48:31;4.83;;;0.83;;
18776;SDS011;9517;51.174;4.160;2022-08-06T09:50:59;4.43;;;0.80;;
18776;SDS011;9517;51.174;4.160;2022-08-06T09:53:26;3.57;;;0.83;;
18776;SDS011;9517;51.174;4.160;2022-08-06T09:55:54;4.90;;;0.80;;
18776;SDS011;9517;51.174;4.160;2022-08-06T09:58:27;3.20;;;0.60;;
18776;SDS011;9517;51.174;4.160;2022-08-06T10:00:56;6.87;;;0.73;;
18776;SDS011;9517;51.174;4.160;2022-08-06T10:03:23;3.00;;;0.70;;
18776;SDS011;9517;51.174;4.160;2022-08-06T10:06:03;3.85;;;0.60;;
18776;SDS011;9517;51.174;4.160;2022-08-06T10:08:31;3.23;;;0.60;;
18776;SDS011;9517;51.174;4.160;2022-08-06T10:10:58;7.47;;;1.00;;
18776;SDS011;9517;51.174;4.160;2022-08-06T10:13:29;5.30;;;0.97;;
18776;SDS011;9517;51.174;4.160;2022-08-06T10:15:58;2.60;;;0.60;;
18776;SDS011;9517;51.174;4.160;2022-08-06T10:18:30;5.47;;;1.02;;
18776;SDS011;9517;51.174;4.160;2022-08-06T10:21:03;3.65;;;0.75;;
18776;SDS011;9517;51.174;4.160;2022-08-06T10:23:32;3.10;;;0.80;;
18776;SDS011;9517;51.174;4.160;2022-08-06T10:26:01;2.92;;;0.70;;
18776;SDS011;9517;51.174;4.160;2022-08-06T10:28:32;4.47;;;0.90;;
18776;SDS011;9517;51.174;4.160;2022-08-06T10:31:01;3.63;;;0.60;;
18776;SDS011;9517;51.174;4.160;2022-08-06T10:33:31;3.10;;;0.60;;
18776;SDS011;9517;51.174;4.160;2022-08-06T10:36:02;4.82;;;0.80;;
18776;SDS011;9517;51.174;4.160;2022-08-06T10:38:33;5.50;;;0.80;;
18776;SDS011;9517;51.174;4.160;2022-08-06T10:41:02;4.85;;;0.68;;
18776;SDS011;9517;51.174;4.160;2022-08-06T10:43:34;4.22;;;0.70;;
18776;SDS011;9517;51.174;4.160;2022-08-06T10:46:03;6.20;;;0.90;;
18776;SDS011;9517;51.174;4.160;2022-08-06T10:48:32;4.88;;;0.70;;
18776;SDS011;9517;51.174;4.160;2022-08-06T10:51:00;7.82;;;0.90;;
18776;SDS011;9517;51.174;4.160;2022-08-06T10:53:29;3.20;;;0.70;;
18776;SDS011;9517;51.174;4.160;2022-08-06T10:55:59;4.70;;;0.75;;
18776;SDS011;9517;51.174;4.160;2022-08-06T10:58:29;1.98;;;0.50;;
18776;SDS011;9517;51.174;4.160;2022-08-06T11:00:59;4.28;;;0.95;;
18776;SDS011;9517;51.174;4.160;2022-08-06T11:03:31;3.17;;;0.65;;
18776;SDS011;9517;51.174;4.160;2022-08-06T11:06:12;3.75;;;0.70;;
18776;SDS011;9517;51.174;4.160;2022-08-06T11:08:58;5.13;;;0.80;;
18776;SDS011;9517;51.174;4.160;2022-08-06T11:11:43;5.82;;;1.00;;
18776;SDS011;9517;51.174;4.160;2022-08-06T11:14:20;8.27;;;0.90;;
18776;SDS011;9517;51.174;4.160;2022-08-06T11:16:58;4.05;;;0.70;;
18776;SDS011;9517;51.174;4.160;2022-08-06T11:19:36;9.80;;;1.00;;
18776;SDS011;9517;51.174;4.160;2022-08-06T11:22:05;3.88;;;1.00;;
18776;SDS011;9517;51.174;4.160;2022-08-06T11:24:32;7.60;;;0.85;;
18776;SDS011;9517;51.174;4.160;2022-08-06T11:26:59;3.25;;;1.10;;
18776;SDS011;9517;51.174;4.160;2022-08-06T11:29:27;5.57;;;1.20;;
18776;SDS011;9517;51.174;4.160;2022-08-06T11:31:54;2.47;;;0.70;;
18776;SDS011;9517;51.174;4.160;2022-08-06T11:34:39;6.28;;;1.10;;
18776;SDS011;9517;51.174;4.160;2022-08-06T11:37:09;4.25;;;1.05;;
18776;SDS011;9517;51.174;4.160;2022-08-06T11:42:40;4.88;;;1.05;;
18776;SDS011;9517;51.174;4.160;2022-08-06T11:45:08;3.50;;;1.00;;
18776;SDS011;9517;51.174;4.160;2022-08-06T11:47:35;3.95;;;0.98;;
18776;SDS011;9517;51.174;4.160;2022-08-06T11:50:33;5.28;;;1.20;;
18776;SDS011;9517;51.174;4.160;2022-08-06T11:53:00;7.90;;;1.20;;
18776;SDS011;9517;51.174;4.160;2022-08-06T11:55:27;4.75;;;1.30;;
18776;SDS011;9517;51.174;4.160;2022-08-06T12:00:55;7.25;;;1.52;;
18776;SDS011;9517;51.174;4.160;2022-08-06T12:03:36;11.05;;;1.85;;
18776;SDS011;9517;51.174;4.160;2022-08-06T12:06:19;5.60;;;1.40;;
18776;SDS011;9517;51.174;4.160;2022-08-06T12:09:08;4.70;;;1.55;;
18776;SDS011;9517;51.174;4.160;2022-08-06T12:11:37;2.97;;;1.20;;
18776;SDS011;9517;51.174;4.160;2022-08-06T12:14:04;7.13;;;1.52;;
18776;SDS011;9517;51.174;4.160;2022-08-06T12:16:53;6.07;;;1.58;;
18776;SDS011;9517;51.174;4.160;2022-08-06T12:19:22;6.03;;;1.58;;
18776;SDS011;9517;51.174;4.160;2022-08-06T12:21:51;6.82;;;1.40;;
18776;SDS011;9517;51.174;4.160;2022-08-06T12:24:24;8.20;;;1.60;;
18776;SDS011;9517;51.174;4.160;2022-08-06T12:26:52;3.80;;;1.42;;
18776;SDS011;9517;51.174;4.160;2022-08-06T12:29:20;6.00;;;1.70;;
18776;SDS011;9517;51.174;4.160;2022-08-06T12:31:48;5.50;;;1.50;;
18776;SDS011;9517;51.174;4.160;2022-08-06T12:34:24;6.72;;;1.67;;
18776;SDS011;9517;51.174;4.160;2022-08-06T12:36:53;5.72;;;1.75;;
18776;SDS011;9517;51.174;4.160;2022-08-06T12:39:21;4.90;;;1.63;;
18776;SDS011;9517;51.174;4.160;2022-08-06T12:42:21;4.88;;;1.25;;
18776;SDS011;9517;51.174;4.160;2022-08-06T12:44:48;6.07;;;1.63;;
18776;SDS011;9517;51.174;4.160;2022-08-06T12:47:16;4.82;;;1.42;;
18776;SDS011;9517;51.174;4.160;2022-08-06T12:49:44;5.25;;;1.75;;
18776;SDS011;9517;51.174;4.160;2022-08-06T12:52:12;5.72;;;1.73;;
18776;SDS011;9517;51.174;4.160;2022-08-06T12:54:42;7.15;;;2.13;;
18776;SDS011;9517;51.174;4.160;2022-08-06T12:57:18;6.43;;;1.65;;
18776;SDS011;9517;51.174;4.160;2022-08-06T12:59:48;5.63;;;2.05;;
18776;SDS011;9517;51.174;4.160;2022-08-06T13:02:16;4.78;;;1.73;;
18776;SDS011;9517;51.174;4.160;2022-08-06T13:04:47;5.18;;;1.50;;
18776;SDS011;9517;51.174;4.160;2022-08-06T13:07:16;4.22;;;1.40;;
18776;SDS011;9517;51.174;4.160;2022-08-06T13:09:44;5.25;;;1.75;;
18776;SDS011;9517;51.174;4.160;2022-08-06T13:12:13;4.25;;;1.50;;
18776;SDS011;9517;51.174;4.160;2022-08-06T13:14:48;5.22;;;1.55;;
18776;SDS011;9517;51.174;4.160;2022-08-06T13:17:17;6.95;;;1.80;;
18776;SDS011;9517;51.174;4.160;2022-08-06T13:19:51;6.30;;;1.50;;
18776;SDS011;9517;51.174;4.160;2022-08-06T13:22:19;5.55;;;1.60;;
18776;SDS011;9517;51.174;4.160;2022-08-06T13:24:46;6.60;;;1.70;;
18776;SDS011;9517;51.174;4.160;2022-08-06T13:27:14;3.60;;;1.40;;
18776;SDS011;9517;51.174;4.160;2022-08-06T13:32:30;5.65;;;1.45;;
18776;SDS011;9517;51.174;4.160;2022-08-06T13:35:00;5.82;;;1.83;;
18776;SDS011;9517;51.174;4.160;2022-08-06T13:37:41;6.03;;;1.35;;
18776;SDS011;9517;51.174;4.160;2022-08-06T13:40:10;5.97;;;1.75;;
18776;SDS011;9517;51.174;4.160;2022-08-06T13:42:47;6.05;;;1.83;;
18776;SDS011;9517;51.174;4.160;2022-08-06T13:45:18;4.78;;;1.40;;
18776;SDS011;9517;51.174;4.160;2022-08-06T13:47:47;6.07;;;1.50;;
18776;SDS011;9517;51.174;4.160;2022-08-06T13:50:17;6.75;;;1.48;;
18776;SDS011;9517;51.174;4.160;2022-08-06T13:52:44;4.25;;;1.55;;
18776;SDS011;9517;51.174;4.160;2022-08-06T13:55:12;4.50;;;1.20;;
18776;SDS011;9517;51.174;4.160;2022-08-06T13:57:39;7.82;;;1.70;;
18776;SDS011;9517;51.174;4.160;2022-08-06T14:00:06;6.40;;;1.67;;
18776;SDS011;9517;51.174;4.160;2022-08-06T14:02:34;6.65;;;1.70;;
18776;SDS011;9517;51.174;4.160;2022-08-06T14:05:01;7.90;;;1.55;;
18776;SDS011;9517;51.174;4.160;2022-08-06T14:07:31;5.72;;;1.20;;
18776;SDS011;9517;51.174;4.160;2022-08-06T14:09:58;5.72;;;1.50;;
18776;SDS011;9517;51.174;4.160;2022-08-06T14:12:28;5.22;;;1.10;;
18776;SDS011;9517;51.174;4.160;2022-08-06T14:14:55;5.95;;;1.40;;
18776;SDS011;9517;51.174;4.160;2022-08-06T14:17:23;7.20;;;2.15;;
18776;SDS011;9517;51.174;4.160;2022-08-06T14:19:50;4.72;;;1.40;;
18776;SDS011;9517;51.174;4.160;2022-08-06T14:22:17;5.30;;;1.33;;
18776;SDS011;9517;51.174;4.160;2022-08-06T14:24:46;7.07;;;1.20;;
18776;SDS011;9517;51.174;4.160;2022-08-06T14:27:13;4.88;;;1.10;;
18776;SDS011;9517;51.174;4.160;2022-08-06T14:29:40;3.22;;;1.13;;
18776;SDS011;9517;51.174;4.160;2022-08-06T14:32:07;4.20;;;1.60;;
18776;SDS011;9517;51.174;4.160;2022-08-06T14:34:34;9.50;;;1.42;;
18776;SDS011;9517;51.174;4.160;2022-08-06T14:37:01;5.30;;;1.20;;
18776;SDS011;9517;51.174;4.160;2022-08-06T14:39:29;4.85;;;1.13;;
18776;SDS011;9517;51.174;4.160;2022-08-06T14:41:57;3.30;;;1.08;;
18776;SDS011;9517;51.174;4.160;2022-08-06T14:44:41;4.13;;;1.20;;
18776;SDS011;9517;51.174;4.160;2022-08-06T14:47:25;5.60;;;1.40;;
18776;SDS011;9517;51.174;4.160;2022-08-06T14:49:52;3.63;;;1.00;;
18776;SDS011;9517;51.174;4.160;2022-08-06T14:52:19;2.20;;;0.90;;
18776;SDS011;9517;51.174;4.160;2022-08-06T14:54:46;3.50;;;1.02;;
18776;SDS011;9517;51.174;4.160;2022-08-06T14:57:14;4.93;;;1.08;;
18776;SDS011;9517;51.174;4.160;2022-08-06T14:59:42;5.70;;;1.35;;
18776;SDS011;9517;51.174;4.160;2022-08-06T15:02:10;2.53;;;1.00;;
18776;SDS011;9517;51.174;4.160;2022-08-06T15:04:37;5.80;;;1.20;;
18776;SDS011;9517;51.174;4.160;2022-08-06T15:07:04;5.38;;;1.00;;
18776;SDS011;9517;51.174;4.160;2022-08-06T15:09:33;4.05;;;1.20;;
18776;SDS011;9517;51.174;4.160;2022-08-06T15:12:00;5.53;;;1.10;;
18776;SDS011;9517;51.174;4.160;2022-08-06T15:14:28;3.33;;;0.93;;
18776;SDS011;9517;51.174;4.160;2022-08-06T15:16:55;6.45;;;1.10;;
18776;SDS011;9517;51.174;4.160;2022-08-06T15:19:23;5.03;;;0.95;;
18776;SDS011;9517;51.174;4.160;2022-08-06T15:21:49;4.28;;;1.05;;
18776;SDS011;9517;51.174;4.160;2022-08-06T15:24:17;3.88;;;0.93;;
18776;SDS011;9517;51.174;4.160;2022-08-06T15:26:44;7.57;;;1.42;;